sensor_id;sensor_type;location;lat;lon;timestamp;P1;durP1;ratioP1;P2;durP2;ratioP2
28481;SDS011;15703;49.588;6.260;2023-01-19T00:02:23;28.87;;;16.27;;
28481;SDS011;15703;49.588;6.260;2023-01-19T00:04:56;23.47;;;16.03;;
28481;SDS011;15703;49.588;6.260;2023-01-19T00:10:35;23.77;;;15.80;;
28481;SDS011;15703;49.588;6.260;2023-01-19T00:15:45;23.70;;;16.03;;
28481;SDS011;15703;49.588;6.260;2023-01-19T00:18:18;21.20;;;16.30;;
28481;SDS011;15703;49.588;6.260;2023-01-19T00:20:40;18.60;;;14.67;;
28481;SDS011;15703;49.588;6.260;2023-01-19T00:23:03;22.07;;;15.57;;
28481;SDS011;15703;49.588;6.260;2023-01-19T00:25:28;19.10;;;15.13;;
28481;SDS011;15703;49.588;6.260;2023-01-19T00:27:52;22.23;;;14.53;;
28481;SDS011;15703;49.588;6.260;2023-01-19T00:30:17;22.07;;;15.43;;
28481;SDS011;15703;49.588;6.260;2023-01-19T00:32:40;20.90;;;15.90;;
28481;SDS011;15703;49.588;6.260;2023-01-19T00:35:02;22.97;;;15.53;;
28481;SDS011;15703;49.588;6.260;2023-01-19T00:37:25;20.93;;;14.87;;
28481;SDS011;15703;49.588;6.260;2023-01-19T00:39:47;19.67;;;15.13;;
28481;SDS011;15703;49.588;6.260;2023-01-19T00:42:11;19.20;;;14.97;;
28481;SDS011;15703;49.588;6.260;2023-01-19T00:44:52;24.30;;;14.37;;
28481;SDS011;15703;49.588;6.260;2023-01-19T00:47:16;26.50;;;16.60;;
28481;SDS011;15703;49.588;6.260;2023-01-19T00:49:39;22.67;;;16.83;;
28481;SDS011;15703;49.588;6.260;2023-01-19T00:52:02;20.10;;;15.37;;
28481;SDS011;15703;49.588;6.260;2023-01-19T00:54:24;21.60;;;15.93;;
28481;SDS011;15703;49.588;6.260;2023-01-19T00:57:05;21.87;;;16.23;;
28481;SDS011;15703;49.588;6.260;2023-01-19T00:59:48;19.93;;;14.73;;
28481;SDS011;15703;49.588;6.260;2023-01-19T01:02:10;22.23;;;15.73;;
28481;SDS011;15703;49.588;6.260;2023-01-19T01:04:40;23.07;;;15.73;;
28481;SDS011;15703;49.588;6.260;2023-01-19T01:07:03;23.10;;;16.47;;
28481;SDS011;15703;49.588;6.260;2023-01-19T01:09:26;19.30;;;14.73;;
28481;SDS011;15703;49.588;6.260;2023-01-19T01:11:48;22.77;;;14.80;;
28481;SDS011;15703;49.588;6.260;2023-01-19T01:14:11;20.20;;;14.63;;
28481;SDS011;15703;49.588;6.260;2023-01-19T01:16:39;19.17;;;14.80;;
28481;SDS011;15703;49.588;6.260;2023-01-19T01:19:03;20.20;;;15.20;;
28481;SDS011;15703;49.588;6.260;2023-01-19T01:21:26;20.97;;;15.37;;
28481;SDS011;15703;49.588;6.260;2023-01-19T01:23:48;20.70;;;15.13;;
28481;SDS011;15703;49.588;6.260;2023-01-19T01:26:11;17.73;;;15.43;;
28481;SDS011;15703;49.588;6.260;2023-01-19T01:28:33;22.20;;;15.80;;
28481;SDS011;15703;49.588;6.260;2023-01-19T01:30:56;21.17;;;15.63;;
28481;SDS011;15703;49.588;6.260;2023-01-19T01:33:18;21.70;;;15.33;;
28481;SDS011;15703;49.588;6.260;2023-01-19T01:36:01;22.10;;;16.47;;
28481;SDS011;15703;49.588;6.260;2023-01-19T01:38:25;24.37;;;15.87;;
28481;SDS011;15703;49.588;6.260;2023-01-19T01:40:48;20.63;;;14.67;;
28481;SDS011;15703;49.588;6.260;2023-01-19T01:43:11;17.97;;;14.63;;
28481;SDS011;15703;49.588;6.260;2023-01-19T01:45:34;20.67;;;15.73;;
28481;SDS011;15703;49.588;6.260;2023-01-19T01:48:06;24.00;;;16.40;;
28481;SDS011;15703;49.588;6.260;2023-01-19T01:50:31;22.87;;;16.47;;
28481;SDS011;15703;49.588;6.260;2023-01-19T01:53:02;20.83;;;15.17;;
28481;SDS011;15703;49.588;6.260;2023-01-19T01:55:28;21.83;;;15.87;;
28481;SDS011;15703;49.588;6.260;2023-01-19T01:57:53;21.50;;;16.63;;
28481;SDS011;15703;49.588;6.260;2023-01-19T02:00:18;21.60;;;15.13;;
28481;SDS011;15703;49.588;6.260;2023-01-19T02:02:41;21.97;;;15.70;;
28481;SDS011;15703;49.588;6.260;2023-01-19T02:05:20;26.37;;;16.97;;
28481;SDS011;15703;49.588;6.260;2023-01-19T02:07:56;19.10;;;15.57;;
28481;SDS011;15703;49.588;6.260;2023-01-19T02:10:40;20.73;;;15.77;;
28481;SDS011;15703;49.588;6.260;2023-01-19T02:13:21;20.67;;;15.77;;
28481;SDS011;15703;49.588;6.260;2023-01-19T02:15:49;23.33;;;17.27;;
28481;SDS011;15703;49.588;6.260;2023-01-19T02:18:13;24.47;;;16.10;;
28481;SDS011;15703;49.588;6.260;2023-01-19T02:20:36;20.33;;;16.57;;
28481;SDS011;15703;49.588;6.260;2023-01-19T02:23:01;22.37;;;16.77;;
28481;SDS011;15703;49.588;6.260;2023-01-19T02:25:33;22.30;;;16.33;;
28481;SDS011;15703;49.588;6.260;2023-01-19T02:27:57;21.97;;;16.57;;
28481;SDS011;15703;49.588;6.260;2023-01-19T02:30:21;20.13;;;16.03;;
28481;SDS011;15703;49.588;6.260;2023-01-19T02:32:44;21.83;;;16.03;;
28481;SDS011;15703;49.588;6.260;2023-01-19T02:35:07;22.17;;;16.57;;
28481;SDS011;15703;49.588;6.260;2023-01-19T02:37:30;21.50;;;16.10;;
28481;SDS011;15703;49.588;6.260;2023-01-19T02:40:07;20.13;;;14.80;;
28481;SDS011;15703;49.588;6.260;2023-01-19T02:42:50;21.47;;;16.37;;
28481;SDS011;15703;49.588;6.260;2023-01-19T02:45:20;21.07;;;15.03;;
28481;SDS011;15703;49.588;6.260;2023-01-19T02:47:47;20.53;;;14.63;;
28481;SDS011;15703;49.588;6.260;2023-01-19T02:55:44;18.07;;;13.93;;
28481;SDS011;15703;49.588;6.260;2023-01-19T03:00:54;20.30;;;16.33;;
28481;SDS011;15703;49.588;6.260;2023-01-19T03:03:29;18.30;;;13.33;;
28481;SDS011;15703;49.588;6.260;2023-01-19T03:05:55;17.07;;;14.27;;
28481;SDS011;15703;49.588;6.260;2023-01-19T03:13:18;13.40;;;12.00;;
28481;SDS011;15703;49.588;6.260;2023-01-19T03:18:13;14.60;;;12.40;;
28481;SDS011;15703;49.588;6.260;2023-01-19T03:20:36;17.57;;;12.73;;
28481;SDS011;15703;49.588;6.260;2023-01-19T03:23:01;14.73;;;11.83;;
28481;SDS011;15703;49.588;6.260;2023-01-19T03:25:25;15.63;;;12.90;;
28481;SDS011;15703;49.588;6.260;2023-01-19T03:27:49;15.77;;;12.97;;
28481;SDS011;15703;49.588;6.260;2023-01-19T03:30:16;16.87;;;12.23;;
28481;SDS011;15703;49.588;6.260;2023-01-19T03:32:43;14.33;;;12.40;;
28481;SDS011;15703;49.588;6.260;2023-01-19T03:35:10;16.53;;;13.20;;
28481;SDS011;15703;49.588;6.260;2023-01-19T03:37:33;19.20;;;14.00;;
28481;SDS011;15703;49.588;6.260;2023-01-19T03:39:58;16.20;;;12.87;;
28481;SDS011;15703;49.588;6.260;2023-01-19T03:42:21;16.83;;;13.80;;
28481;SDS011;15703;49.588;6.260;2023-01-19T03:44:44;17.20;;;13.07;;
28481;SDS011;15703;49.588;6.260;2023-01-19T03:47:11;15.27;;;13.07;;
28481;SDS011;15703;49.588;6.260;2023-01-19T03:49:34;17.00;;;12.80;;
28481;SDS011;15703;49.588;6.260;2023-01-19T03:51:58;15.70;;;12.40;;
28481;SDS011;15703;49.588;6.260;2023-01-19T03:54:20;18.93;;;12.50;;
28481;SDS011;15703;49.588;6.260;2023-01-19T03:56:45;16.50;;;12.50;;
28481;SDS011;15703;49.588;6.260;2023-01-19T03:59:08;18.40;;;13.37;;
28481;SDS011;15703;49.588;6.260;2023-01-19T04:01:31;13.70;;;11.60;;
28481;SDS011;15703;49.588;6.260;2023-01-19T04:03:53;16.13;;;12.47;;
28481;SDS011;15703;49.588;6.260;2023-01-19T04:06:19;16.60;;;13.13;;
28481;SDS011;15703;49.588;6.260;2023-01-19T04:08:42;13.47;;;11.67;;
28481;SDS011;15703;49.588;6.260;2023-01-19T04:11:05;12.90;;;11.50;;
28481;SDS011;15703;49.588;6.260;2023-01-19T04:13:35;16.90;;;12.63;;
28481;SDS011;15703;49.588;6.260;2023-01-19T04:16:01;14.27;;;12.03;;
28481;SDS011;15703;49.588;6.260;2023-01-19T04:18:45;18.73;;;13.50;;
28481;SDS011;15703;49.588;6.260;2023-01-19T04:21:07;15.23;;;12.67;;
28481;SDS011;15703;49.588;6.260;2023-01-19T04:23:30;14.53;;;12.20;;
28481;SDS011;15703;49.588;6.260;2023-01-19T04:25:57;16.60;;;13.37;;
28481;SDS011;15703;49.588;6.260;2023-01-19T04:28:20;12.90;;;11.57;;
28481;SDS011;15703;49.588;6.260;2023-01-19T04:30:42;16.50;;;12.63;;
28481;SDS011;15703;49.588;6.260;2023-01-19T04:33:05;14.70;;;12.10;;
28481;SDS011;15703;49.588;6.260;2023-01-19T04:35:27;14.43;;;11.80;;
28481;SDS011;15703;49.588;6.260;2023-01-19T04:37:50;12.50;;;10.60;;
28481;SDS011;15703;49.588;6.260;2023-01-19T04:40:12;15.73;;;12.30;;
28481;SDS011;15703;49.588;6.260;2023-01-19T04:42:34;17.57;;;12.50;;
28481;SDS011;15703;49.588;6.260;2023-01-19T04:44:57;15.17;;;12.50;;
28481;SDS011;15703;49.588;6.260;2023-01-19T04:47:19;14.70;;;11.93;;
28481;SDS011;15703;49.588;6.260;2023-01-19T04:49:42;15.77;;;11.80;;
28481;SDS011;15703;49.588;6.260;2023-01-19T04:52:04;15.40;;;11.83;;
28481;SDS011;15703;49.588;6.260;2023-01-19T04:54:27;14.47;;;11.73;;
28481;SDS011;15703;49.588;6.260;2023-01-19T04:56:49;16.17;;;11.67;;
28481;SDS011;15703;49.588;6.260;2023-01-19T04:59:12;14.33;;;12.23;;
28481;SDS011;15703;49.588;6.260;2023-01-19T05:01:34;17.07;;;11.83;;
28481;SDS011;15703;49.588;6.260;2023-01-19T05:03:57;17.07;;;13.07;;
28481;SDS011;15703;49.588;6.260;2023-01-19T05:06:20;14.57;;;12.90;;
28481;SDS011;15703;49.588;6.260;2023-01-19T05:08:42;16.23;;;13.77;;
28481;SDS011;15703;49.588;6.260;2023-01-19T05:11:05;16.80;;;13.00;;
28481;SDS011;15703;49.588;6.260;2023-01-19T05:13:31;15.40;;;12.30;;
28481;SDS011;15703;49.588;6.260;2023-01-19T05:15:53;16.40;;;12.83;;
28481;SDS011;15703;49.588;6.260;2023-01-19T05:18:16;17.50;;;13.47;;
28481;SDS011;15703;49.588;6.260;2023-01-19T05:20:38;17.87;;;13.00;;
28481;SDS011;15703;49.588;6.260;2023-01-19T05:23:01;18.57;;;12.77;;
28481;SDS011;15703;49.588;6.260;2023-01-19T05:25:24;16.70;;;12.07;;
28481;SDS011;15703;49.588;6.260;2023-01-19T05:27:46;18.13;;;12.07;;
28481;SDS011;15703;49.588;6.260;2023-01-19T05:30:09;16.30;;;11.83;;
28481;SDS011;15703;49.588;6.260;2023-01-19T05:32:31;15.03;;;11.90;;
28481;SDS011;15703;49.588;6.260;2023-01-19T05:35:03;14.37;;;10.87;;
28481;SDS011;15703;49.588;6.260;2023-01-19T05:37:25;19.37;;;12.20;;
28481;SDS011;15703;49.588;6.260;2023-01-19T05:39:47;13.40;;;11.97;;
28481;SDS011;15703;49.588;6.260;2023-01-19T05:42:10;14.63;;;10.90;;
28481;SDS011;15703;49.588;6.260;2023-01-19T05:44:32;16.37;;;12.20;;
28481;SDS011;15703;49.588;6.260;2023-01-19T05:46:54;16.63;;;11.57;;
28481;SDS011;15703;49.588;6.260;2023-01-19T05:49:17;14.23;;;11.70;;
28481;SDS011;15703;49.588;6.260;2023-01-19T05:51:39;16.73;;;12.73;;
28481;SDS011;15703;49.588;6.260;2023-01-19T05:54:06;13.60;;;10.83;;
28481;SDS011;15703;49.588;6.260;2023-01-19T05:56:28;16.10;;;12.10;;
28481;SDS011;15703;49.588;6.260;2023-01-19T05:58:51;13.53;;;11.50;;
28481;SDS011;15703;49.588;6.260;2023-01-19T06:01:13;14.30;;;11.57;;
28481;SDS011;15703;49.588;6.260;2023-01-19T06:03:35;15.13;;;11.63;;
28481;SDS011;15703;49.588;6.260;2023-01-19T06:06:00;13.73;;;11.53;;
28481;SDS011;15703;49.588;6.260;2023-01-19T06:08:22;14.73;;;11.87;;
28481;SDS011;15703;49.588;6.260;2023-01-19T06:10:45;12.63;;;10.43;;
28481;SDS011;15703;49.588;6.260;2023-01-19T06:13:07;14.20;;;10.90;;
28481;SDS011;15703;49.588;6.260;2023-01-19T06:15:31;17.57;;;11.83;;
28481;SDS011;15703;49.588;6.260;2023-01-19T06:17:53;15.20;;;12.13;;
28481;SDS011;15703;49.588;6.260;2023-01-19T06:20:16;15.47;;;12.30;;
28481;SDS011;15703;49.588;6.260;2023-01-19T06:22:39;12.90;;;11.23;;
28481;SDS011;15703;49.588;6.260;2023-01-19T06:25:01;19.50;;;12.77;;
28481;SDS011;15703;49.588;6.260;2023-01-19T06:27:24;16.07;;;12.07;;
28481;SDS011;15703;49.588;6.260;2023-01-19T06:29:46;15.23;;;11.43;;
28481;SDS011;15703;49.588;6.260;2023-01-19T06:32:09;18.00;;;12.80;;
28481;SDS011;15703;49.588;6.260;2023-01-19T06:34:31;14.10;;;12.03;;
28481;SDS011;15703;49.588;6.260;2023-01-19T06:36:56;20.80;;;13.30;;
28481;SDS011;15703;49.588;6.260;2023-01-19T06:39:19;18.30;;;13.17;;
28481;SDS011;15703;49.588;6.260;2023-01-19T06:41:42;16.10;;;12.20;;
28481;SDS011;15703;49.588;6.260;2023-01-19T06:44:30;16.60;;;12.80;;
28481;SDS011;15703;49.588;6.260;2023-01-19T06:46:52;14.63;;;12.07;;
28481;SDS011;15703;49.588;6.260;2023-01-19T06:49:35;16.63;;;12.13;;
28481;SDS011;15703;49.588;6.260;2023-01-19T06:52:00;20.03;;;13.60;;
28481;SDS011;15703;49.588;6.260;2023-01-19T06:54:23;18.50;;;12.57;;
28481;SDS011;15703;49.588;6.260;2023-01-19T06:56:48;13.60;;;12.20;;
28481;SDS011;15703;49.588;6.260;2023-01-19T06:59:12;14.73;;;12.03;;
28481;SDS011;15703;49.588;6.260;2023-01-19T07:01:34;15.73;;;12.20;;
28481;SDS011;15703;49.588;6.260;2023-01-19T07:03:57;14.57;;;12.00;;
28481;SDS011;15703;49.588;6.260;2023-01-19T07:06:19;14.50;;;12.23;;
28481;SDS011;15703;49.588;6.260;2023-01-19T07:08:41;16.67;;;12.60;;
28481;SDS011;15703;49.588;6.260;2023-01-19T07:11:06;15.60;;;12.10;;
28481;SDS011;15703;49.588;6.260;2023-01-19T07:13:52;13.77;;;10.80;;
28481;SDS011;15703;49.588;6.260;2023-01-19T07:16:14;17.20;;;11.90;;
28481;SDS011;15703;49.588;6.260;2023-01-19T07:18:37;15.27;;;11.77;;
28481;SDS011;15703;49.588;6.260;2023-01-19T07:21:00;12.70;;;10.90;;
28481;SDS011;15703;49.588;6.260;2023-01-19T07:23:22;15.13;;;11.40;;
28481;SDS011;15703;49.588;6.260;2023-01-19T07:25:44;13.53;;;10.80;;
28481;SDS011;15703;49.588;6.260;2023-01-19T07:28:07;13.60;;;10.97;;
28481;SDS011;15703;49.588;6.260;2023-01-19T07:30:29;13.30;;;9.70;;
28481;SDS011;15703;49.588;6.260;2023-01-19T07:32:55;12.70;;;10.47;;
28481;SDS011;15703;49.588;6.260;2023-01-19T07:35:18;10.60;;;9.30;;
28481;SDS011;15703;49.588;6.260;2023-01-19T07:37:42;13.63;;;10.07;;
28481;SDS011;15703;49.588;6.260;2023-01-19T07:40:07;13.33;;;10.30;;
28481;SDS011;15703;49.588;6.260;2023-01-19T07:42:30;12.00;;;9.97;;
28481;SDS011;15703;49.588;6.260;2023-01-19T07:44:53;11.30;;;10.30;;
28481;SDS011;15703;49.588;6.260;2023-01-19T07:47:15;12.67;;;10.80;;
28481;SDS011;15703;49.588;6.260;2023-01-19T07:49:38;13.20;;;10.70;;
28481;SDS011;15703;49.588;6.260;2023-01-19T07:52:13;15.50;;;10.87;;
28481;SDS011;15703;49.588;6.260;2023-01-19T07:54:36;12.13;;;10.00;;
28481;SDS011;15703;49.588;6.260;2023-01-19T07:57:05;15.63;;;10.63;;
28481;SDS011;15703;49.588;6.260;2023-01-19T07:59:52;11.50;;;10.30;;
28481;SDS011;15703;49.588;6.260;2023-01-19T08:13:32;11.87;;;9.97;;
28481;SDS011;15703;49.588;6.260;2023-01-19T08:16:09;12.07;;;10.20;;
28481;SDS011;15703;49.588;6.260;2023-01-19T08:18:31;13.47;;;10.27;;
28481;SDS011;15703;49.588;6.260;2023-01-19T08:20:54;12.03;;;9.63;;
28481;SDS011;15703;49.588;6.260;2023-01-19T08:23:16;11.47;;;10.23;;
28481;SDS011;15703;49.588;6.260;2023-01-19T08:26:27;10.20;;;9.20;;
28481;SDS011;15703;49.588;6.260;2023-01-19T08:28:28;11.47;;;10.13;;
28481;SDS011;15703;49.588;6.260;2023-01-19T08:30:52;10.60;;;9.20;;
28481;SDS011;15703;49.588;6.260;2023-01-19T08:33:15;16.23;;;10.23;;
28481;SDS011;15703;49.588;6.260;2023-01-19T08:35:39;13.07;;;9.67;;
28481;SDS011;15703;49.588;6.260;2023-01-19T08:38:03;11.23;;;9.57;;
28481;SDS011;15703;49.588;6.260;2023-01-19T08:40:35;11.07;;;9.67;;
28481;SDS011;15703;49.588;6.260;2023-01-19T08:42:58;11.33;;;9.50;;
28481;SDS011;15703;49.588;6.260;2023-01-19T08:45:25;10.93;;;9.83;;
28481;SDS011;15703;49.588;6.260;2023-01-19T08:47:49;12.67;;;9.20;;
28481;SDS011;15703;49.588;6.260;2023-01-19T08:53:35;9.97;;;8.97;;
28481;SDS011;15703;49.588;6.260;2023-01-19T08:55:58;15.23;;;9.23;;
28481;SDS011;15703;49.588;6.260;2023-01-19T08:58:21;11.03;;;8.63;;
28481;SDS011;15703;49.588;6.260;2023-01-19T09:00:44;10.40;;;8.63;;
28481;SDS011;15703;49.588;6.260;2023-01-19T09:03:07;11.77;;;9.27;;
28481;SDS011;15703;49.588;6.260;2023-01-19T09:05:31;13.10;;;8.70;;
28481;SDS011;15703;49.588;6.260;2023-01-19T09:07:57;9.97;;;8.37;;
28481;SDS011;15703;49.588;6.260;2023-01-19T09:10:20;10.47;;;8.77;;
28481;SDS011;15703;49.588;6.260;2023-01-19T09:12:43;9.80;;;8.80;;
28481;SDS011;15703;49.588;6.260;2023-01-19T09:15:06;12.70;;;8.80;;
28481;SDS011;15703;49.588;6.260;2023-01-19T09:17:31;11.80;;;8.67;;
28481;SDS011;15703;49.588;6.260;2023-01-19T09:19:54;10.90;;;9.37;;
28481;SDS011;15703;49.588;6.260;2023-01-19T09:22:17;11.73;;;9.20;;
28481;SDS011;15703;49.588;6.260;2023-01-19T09:24:39;11.10;;;9.27;;
28481;SDS011;15703;49.588;6.260;2023-01-19T09:27:02;10.77;;;8.47;;
28481;SDS011;15703;49.588;6.260;2023-01-19T09:29:27;12.03;;;8.90;;
28481;SDS011;15703;49.588;6.260;2023-01-19T09:31:50;11.97;;;9.43;;
28481;SDS011;15703;49.588;6.260;2023-01-19T09:34:13;14.13;;;9.80;;
28481;SDS011;15703;49.588;6.260;2023-01-19T09:36:38;13.27;;;9.60;;
28481;SDS011;15703;49.588;6.260;2023-01-19T09:39:05;12.73;;;8.70;;
28481;SDS011;15703;49.588;6.260;2023-01-19T09:41:27;14.83;;;10.00;;
28481;SDS011;15703;49.588;6.260;2023-01-19T09:43:54;12.97;;;9.10;;
28481;SDS011;15703;49.588;6.260;2023-01-19T09:46:20;18.93;;;10.07;;
28481;SDS011;15703;49.588;6.260;2023-01-19T09:48:57;12.57;;;9.60;;
28481;SDS011;15703;49.588;6.260;2023-01-19T09:51:30;10.63;;;9.53;;
28481;SDS011;15703;49.588;6.260;2023-01-19T09:56:29;11.30;;;10.13;;
28481;SDS011;15703;49.588;6.260;2023-01-19T09:58:55;12.20;;;9.83;;
28481;SDS011;15703;49.588;6.260;2023-01-19T10:03:44;11.00;;;9.27;;
28481;SDS011;15703;49.588;6.260;2023-01-19T10:06:08;9.97;;;8.97;;
28481;SDS011;15703;49.588;6.260;2023-01-19T10:08:46;10.07;;;9.07;;
28481;SDS011;15703;49.588;6.260;2023-01-19T10:11:16;11.10;;;8.17;;
28481;SDS011;15703;49.588;6.260;2023-01-19T10:13:48;10.90;;;9.07;;
28481;SDS011;15703;49.588;6.260;2023-01-19T10:21:36;9.93;;;8.93;;
28481;SDS011;15703;49.588;6.260;2023-01-19T10:24:01;10.77;;;9.67;;
28481;SDS011;15703;49.588;6.260;2023-01-19T10:26:37;13.83;;;9.30;;
28481;SDS011;15703;49.588;6.260;2023-01-19T10:29:03;14.27;;;9.60;;
28481;SDS011;15703;49.588;6.260;2023-01-19T10:31:35;13.67;;;9.03;;
28481;SDS011;15703;49.588;6.260;2023-01-19T10:33:58;10.60;;;8.93;;
28481;SDS011;15703;49.588;6.260;2023-01-19T10:36:24;11.13;;;9.03;;
28481;SDS011;15703;49.588;6.260;2023-01-19T10:38:47;11.70;;;9.60;;
28481;SDS011;15703;49.588;6.260;2023-01-19T10:41:12;11.50;;;9.30;;
28481;SDS011;15703;49.588;6.260;2023-01-19T10:43:36;11.93;;;9.17;;
28481;SDS011;15703;49.588;6.260;2023-01-19T10:46:00;9.33;;;8.43;;
28481;SDS011;15703;49.588;6.260;2023-01-19T10:48:26;9.20;;;8.13;;
28481;SDS011;15703;49.588;6.260;2023-01-19T10:51:03;9.63;;;8.53;;
28481;SDS011;15703;49.588;6.260;2023-01-19T10:53:34;11.87;;;8.13;;
28481;SDS011;15703;49.588;6.260;2023-01-19T10:58:34;11.60;;;8.40;;
28481;SDS011;15703;49.588;6.260;2023-01-19T11:01:10;10.43;;;8.80;;
28481;SDS011;15703;49.588;6.260;2023-01-19T11:03:33;11.57;;;9.63;;
28481;SDS011;15703;49.588;6.260;2023-01-19T11:08:36;14.93;;;9.77;;
28481;SDS011;15703;49.588;6.260;2023-01-19T11:11:02;9.70;;;8.70;;
28481;SDS011;15703;49.588;6.260;2023-01-19T11:13:28;13.27;;;9.63;;
28481;SDS011;15703;49.588;6.260;2023-01-19T11:15:54;9.70;;;8.77;;
28481;SDS011;15703;49.588;6.260;2023-01-19T11:18:39;9.07;;;8.10;;
28481;SDS011;15703;49.588;6.260;2023-01-19T11:21:02;12.20;;;8.90;;
28481;SDS011;15703;49.588;6.260;2023-01-19T11:23:27;10.97;;;9.57;;
28481;SDS011;15703;49.588;6.260;2023-01-19T11:25:51;10.13;;;8.93;;
28481;SDS011;15703;49.588;6.260;2023-01-19T11:28:24;10.43;;;9.20;;
28481;SDS011;15703;49.588;6.260;2023-01-19T11:31:01;10.17;;;8.33;;
28481;SDS011;15703;49.588;6.260;2023-01-19T11:33:24;9.30;;;8.30;;
28481;SDS011;15703;49.588;6.260;2023-01-19T11:35:47;11.67;;;9.40;;
28481;SDS011;15703;49.588;6.260;2023-01-19T11:40:33;9.10;;;8.03;;
28481;SDS011;15703;49.588;6.260;2023-01-19T11:42:56;10.63;;;8.77;;
28481;SDS011;15703;49.588;6.260;2023-01-19T11:45:19;9.87;;;8.60;;
28481;SDS011;15703;49.588;6.260;2023-01-19T11:47:42;11.33;;;8.57;;
28481;SDS011;15703;49.588;6.260;2023-01-19T11:50:24;12.87;;;8.73;;
28481;SDS011;15703;49.588;6.260;2023-01-19T11:52:59;12.73;;;9.23;;
28481;SDS011;15703;49.588;6.260;2023-01-19T11:55:32;12.00;;;9.53;;
28481;SDS011;15703;49.588;6.260;2023-01-19T11:57:54;9.90;;;8.77;;
28481;SDS011;15703;49.588;6.260;2023-01-19T12:00:32;10.60;;;8.57;;
28481;SDS011;15703;49.588;6.260;2023-01-19T12:02:58;11.50;;;8.30;;
28481;SDS011;15703;49.588;6.260;2023-01-19T12:05:24;10.50;;;8.80;;
28481;SDS011;15703;49.588;6.260;2023-01-19T12:07:48;12.67;;;8.73;;
28481;SDS011;15703;49.588;6.260;2023-01-19T12:12:33;10.30;;;8.57;;
28481;SDS011;15703;49.588;6.260;2023-01-19T12:15:04;12.43;;;9.73;;
28481;SDS011;15703;49.588;6.260;2023-01-19T12:17:29;14.03;;;8.90;;
28481;SDS011;15703;49.588;6.260;2023-01-19T12:20:00;12.80;;;8.80;;
28481;SDS011;15703;49.588;6.260;2023-01-19T12:22:24;9.77;;;8.87;;
28481;SDS011;15703;49.588;6.260;2023-01-19T12:24:53;10.80;;;9.63;;
28481;SDS011;15703;49.588;6.260;2023-01-19T12:27:22;12.53;;;9.43;;
28481;SDS011;15703;49.588;6.260;2023-01-19T12:29:47;10.10;;;9.13;;
28481;SDS011;15703;49.588;6.260;2023-01-19T12:34:39;10.47;;;9.40;;
28481;SDS011;15703;49.588;6.260;2023-01-19T12:37:02;11.33;;;9.60;;
28481;SDS011;15703;49.588;6.260;2023-01-19T12:39:25;9.83;;;8.83;;
28481;SDS011;15703;49.588;6.260;2023-01-19T12:41:48;12.03;;;8.63;;
28481;SDS011;15703;49.588;6.260;2023-01-19T12:44:24;11.60;;;9.63;;
28481;SDS011;15703;49.588;6.260;2023-01-19T12:49:29;14.53;;;9.53;;
28481;SDS011;15703;49.588;6.260;2023-01-19T12:51:54;12.37;;;9.50;;
28481;SDS011;15703;49.588;6.260;2023-01-19T12:54:31;13.27;;;10.23;;
28481;SDS011;15703;49.588;6.260;2023-01-19T12:57:00;11.27;;;10.07;;
28481;SDS011;15703;49.588;6.260;2023-01-19T12:59:23;12.50;;;10.53;;
28481;SDS011;15703;49.588;6.260;2023-01-19T13:02:19;12.80;;;10.10;;
28481;SDS011;15703;49.588;6.260;2023-01-19T13:04:29;11.03;;;9.73;;
28481;SDS011;15703;49.588;6.260;2023-01-19T13:09:31;13.07;;;10.63;;
28481;SDS011;15703;49.588;6.260;2023-01-19T13:14:35;11.77;;;10.20;;
28481;SDS011;15703;49.588;6.260;2023-01-19T13:16:58;11.80;;;10.20;;
28481;SDS011;15703;49.588;6.260;2023-01-19T13:19:26;12.17;;;10.03;;
28481;SDS011;15703;49.588;6.260;2023-01-19T13:21:53;15.07;;;10.80;;
28481;SDS011;15703;49.588;6.260;2023-01-19T13:24:19;11.10;;;9.90;;
28481;SDS011;15703;49.588;6.260;2023-01-19T13:29:44;13.20;;;9.30;;
28481;SDS011;15703;49.588;6.260;2023-01-19T13:32:00;11.20;;;9.13;;
28481;SDS011;15703;49.588;6.260;2023-01-19T13:34:24;11.40;;;10.20;;
28481;SDS011;15703;49.588;6.260;2023-01-19T13:36:50;12.23;;;10.20;;
28481;SDS011;15703;49.588;6.260;2023-01-19T13:39:14;10.57;;;9.30;;
28481;SDS011;15703;49.588;6.260;2023-01-19T13:41:39;13.07;;;10.90;;
28481;SDS011;15703;49.588;6.260;2023-01-19T13:44:20;12.67;;;10.00;;
28481;SDS011;15703;49.588;6.260;2023-01-19T13:46:45;12.30;;;9.57;;
28481;SDS011;15703;49.588;6.260;2023-01-19T13:54:30;12.37;;;10.57;;
28481;SDS011;15703;49.588;6.260;2023-01-19T13:56:52;15.20;;;10.50;;
28481;SDS011;15703;49.588;6.260;2023-01-19T13:59:15;15.53;;;10.03;;
28481;SDS011;15703;49.588;6.260;2023-01-19T14:01:41;12.23;;;10.20;;
28481;SDS011;15703;49.588;6.260;2023-01-19T14:04:04;10.87;;;9.47;;
28481;SDS011;15703;49.588;6.260;2023-01-19T14:06:31;10.53;;;9.10;;
28481;SDS011;15703;49.588;6.260;2023-01-19T14:09:07;11.13;;;9.73;;
28481;SDS011;15703;49.588;6.260;2023-01-19T14:11:29;13.67;;;9.53;;
28481;SDS011;15703;49.588;6.260;2023-01-19T14:13:52;11.60;;;10.13;;
28481;SDS011;15703;49.588;6.260;2023-01-19T14:16:15;12.17;;;9.63;;
28481;SDS011;15703;49.588;6.260;2023-01-19T14:18:38;14.27;;;10.47;;
28481;SDS011;15703;49.588;6.260;2023-01-19T14:25:58;11.70;;;9.53;;
28481;SDS011;15703;49.588;6.260;2023-01-19T14:28:27;10.73;;;9.63;;
28481;SDS011;15703;49.588;6.260;2023-01-19T14:30:57;14.63;;;10.30;;
28481;SDS011;15703;49.588;6.260;2023-01-19T14:38:54;15.47;;;10.93;;
28481;SDS011;15703;49.588;6.260;2023-01-19T14:41:25;15.30;;;11.20;;
28481;SDS011;15703;49.588;6.260;2023-01-19T14:43:48;14.70;;;10.57;;
28481;SDS011;15703;49.588;6.260;2023-01-19T14:46:19;16.53;;;11.30;;
28481;SDS011;15703;49.588;6.260;2023-01-19T14:48:48;14.37;;;11.33;;
28481;SDS011;15703;49.588;6.260;2023-01-19T14:51:11;15.10;;;11.67;;
28481;SDS011;15703;49.588;6.260;2023-01-19T14:53:37;15.40;;;10.87;;
28481;SDS011;15703;49.588;6.260;2023-01-19T14:56:01;17.00;;;11.03;;
28481;SDS011;15703;49.588;6.260;2023-01-19T14:58:26;13.67;;;11.17;;
28481;SDS011;15703;49.588;6.260;2023-01-19T15:00:48;12.67;;;10.90;;
28481;SDS011;15703;49.588;6.260;2023-01-19T15:03:15;14.03;;;10.70;;
28481;SDS011;15703;49.588;6.260;2023-01-19T15:05:38;12.77;;;10.70;;
28481;SDS011;15703;49.588;6.260;2023-01-19T15:08:01;12.40;;;10.67;;
28481;SDS011;15703;49.588;6.260;2023-01-19T15:10:24;13.50;;;10.27;;
28481;SDS011;15703;49.588;6.260;2023-01-19T15:12:48;13.27;;;10.00;;
28481;SDS011;15703;49.588;6.260;2023-01-19T15:15:18;14.60;;;10.83;;
28481;SDS011;15703;49.588;6.260;2023-01-19T15:17:42;12.63;;;10.20;;
28481;SDS011;15703;49.588;6.260;2023-01-19T15:20:05;15.57;;;11.77;;
28481;SDS011;15703;49.588;6.260;2023-01-19T15:22:32;14.30;;;11.20;;
28481;SDS011;15703;49.588;6.260;2023-01-19T15:24:54;12.17;;;10.57;;
28481;SDS011;15703;49.588;6.260;2023-01-19T15:27:20;13.90;;;11.47;;
28481;SDS011;15703;49.588;6.260;2023-01-19T15:29:43;14.33;;;12.03;;
28481;SDS011;15703;49.588;6.260;2023-01-19T15:32:12;15.20;;;11.93;;
28481;SDS011;15703;49.588;6.260;2023-01-19T15:34:34;16.63;;;12.23;;
28481;SDS011;15703;49.588;6.260;2023-01-19T15:36:57;20.93;;;11.93;;
28481;SDS011;15703;49.588;6.260;2023-01-19T15:39:20;14.20;;;11.27;;
28481;SDS011;15703;49.588;6.260;2023-01-19T15:41:42;15.83;;;11.87;;
28481;SDS011;15703;49.588;6.260;2023-01-19T15:44:05;18.20;;;12.73;;